CPX331 Details

Departure: Ted Stevens Anchorage International Airport (PANC)
Arrival: Chicago/Rockford International Airport (KRFD)
Route: TED YESKA NCA13 YQD VBI J538 DLL JVL


Current Weather Information
PANC 212153Z 34005KT 10SM FEW030 SCT200 13/06 A3006 RMK AO2 SLP179 T01280056 $
KRFD 212154Z 08020G32KT 10SM OVC060 13/04 A2995 RMK AO2 PK WND 07032/2150 PRESFR SLP145 T01280044